Time;durP1;ratioP1;P1;durP2;ratioP2;P2;SDS_P1;SDS_P2;PMS_P1;PMS_P2;Temp;Humidity;BMP_temperature;BMP_pressure;BME280_temperature;BME280_humidity;BME280_pressure;Samples;Min_cycle;Max_cycle;Signal;HPM_P1;HPM_P2
2022/06/20 00:00:27;;;;;;;4.93;1.80;;;;;;;22.11;48.21;100270.73;1738213;81;21083;-67
2022/06/20 00:02:55;;;;;;;2.80;1.50;;;;;;;22.08;48.24;100274.13;1737092;81;21102;-67
2022/06/20 00:05:26;;;;;;;3.37;1.60;;;;;;;22.06;48.15;100277.75;1737134;81;21052;-67
2022/06/20 00:07:53;;;;;;;3.83;1.50;;;;;;;22.06;48.15;100281.83;1736964;81;21126;-66
2022/06/20 00:10:23;;;;;;;5.13;2.00;;;;;;;22.04;47.98;100274.56;1745868;82;21531;-67
2022/06/20 00:12:51;;;;;;;3.37;1.80;;;;;;;22.01;48.11;100275.25;1737764;81;21040;-67
2022/06/20 00:15:26;;;;;;;3.07;1.63;;;;;;;21.99;47.82;100275.60;1736620;81;21047;-67
2022/06/20 00:17:55;;;;;;;2.40;1.60;;;;;;;21.99;47.86;100276.17;1739040;81;21034;-67
2022/06/20 00:20:23;;;;;;;2.70;1.57;;;;;;;22.00;47.86;100281.83;1737923;81;21079;-67
2022/06/20 00:22:51;;;;;;;4.33;1.70;;;;;;;21.98;47.83;100281.36;1741592;81;21032;-67
2022/06/20 00:25:19;;;;;;;3.30;1.50;;;;;;;21.96;47.96;100279.00;1736009;81;21097;-67
2022/06/20 00:27:46;;;;;;;2.90;1.43;;;;;;;21.97;47.72;100284.66;1737501;81;21041;-67
2022/06/20 00:30:14;;;;;;;4.07;1.63;;;;;;;21.96;47.82;100276.28;1737769;81;20960;-66
2022/06/20 00:32:41;;;;;;;3.80;1.60;;;;;;;21.96;47.87;100278.21;1736570;81;21609;-66
2022/06/20 00:35:09;;;;;;;2.33;1.53;;;;;;;21.88;47.94;100277.74;1735298;81;21179;-67
2022/06/20 00:37:36;;;;;;;3.57;1.67;;;;;;;21.89;48.04;100292.38;1736973;81;21118;-66
2022/06/20 00:40:05;;;;;;;5.30;2.10;;;;;;;21.87;47.86;100287.83;1739648;81;21047;-67
2022/06/20 00:42:33;;;;;;;3.63;1.67;;;;;;;21.86;48.02;100288.19;1737932;81;21062;-66
2022/06/20 00:45:01;;;;;;;2.70;1.57;;;;;;;21.85;47.75;100295.55;1742646;80;21048;-67
2022/06/20 00:47:32;;;;;;;5.00;1.70;;;;;;;21.84;47.83;100289.08;1739566;81;21191;-66
2022/06/20 00:50:21;;;;;;;3.50;1.70;;;;;;;21.83;47.72;100285.57;1747962;80;21065;-66
2022/06/20 00:52:58;;;;;;;4.20;1.50;;;;;;;21.83;47.56;100284.21;1737330;81;21054;-68
2022/06/20 00:55:39;;;;;;;3.00;1.70;;;;;;;21.84;47.74;100280.34;1741864;80;21051;-68
2022/06/20 00:58:15;;;;;;;2.85;1.65;;;;;;;21.86;47.71;100275.95;1737585;81;21082;-68
2022/06/20 01:00:41;;;;;;;3.87;1.50;;;;;;;21.86;47.71;100274.02;1735512;81;21100;-68
2022/06/20 01:03:18;;;;;;;2.73;1.30;;;;;;;21.87;47.55;100274.80;1736647;81;21039;-68
2022/06/20 01:05:58;;;;;;;3.33;1.37;;;;;;;21.85;47.53;100271.63;1737062;81;21094;-68
2022/06/20 01:08:45;;;;;;;3.17;1.60;;;;;;;21.82;47.66;100274.48;1736679;81;21463;-68
2022/06/20 01:11:22;;;;;;;5.10;1.63;;;;;;;21.79;47.76;100264.28;1738021;81;21071;-67
2022/06/20 01:13:50;;;;;;;3.77;1.70;;;;;;;21.77;47.71;100263.81;1736035;81;21168;-68
2022/06/20 01:16:27;;;;;;;4.07;1.80;;;;;;;21.74;47.92;100263.13;1735181;81;21101;-68
2022/06/20 01:18:55;;;;;;;2.73;1.70;;;;;;;21.72;47.82;100270.85;1742447;81;21055;-68
2022/06/20 01:21:34;;;;;;;2.30;1.63;;;;;;;21.68;47.92;100268.56;1738372;81;21067;-68
2022/06/20 01:24:28;;;;;;;2.90;1.60;;;;;;;21.65;48.08;100275.48;1734956;81;21660;-68
2022/06/20 01:27:22;;;;;;;3.67;1.47;;;;;;;21.64;48.03;100267.66;1742299;81;22136;-66
2022/06/20 01:29:48;;;;;;;3.00;1.50;;;;;;;21.63;47.88;100264.72;1739165;81;21589;-67
2022/06/20 01:32:15;;;;;;;3.47;1.77;;;;;;;21.62;47.83;100259.85;1736449;81;21110;-67
2022/06/20 01:34:42;;;;;;;2.67;1.53;;;;;;;21.62;47.78;100256.31;1736388;82;21616;-68
2022/06/20 01:37:23;;;;;;;3.73;1.90;;;;;;;21.60;47.69;100255.31;1750405;82;21138;-67
2022/06/20 01:39:53;;;;;;;3.20;1.90;;;;;;;21.59;47.74;100256.45;1755425;80;22109;-66
2022/06/20 01:42:20;;;;;;;3.57;1.70;;;;;;;21.60;47.72;100260.75;1731818;81;21064;-67
2022/06/20 01:45:57;;;;;;;4.10;1.90;;;;;;;21.58;47.65;100258.92;1745728;81;20988;-67
2022/06/20 01:47:39;;;;;;;3.10;1.40;;;;;;;21.56;47.75;100265.84;1727420;81;21024;-67
2022/06/20 01:50:07;;;;;;;3.37;1.50;;;;;;;21.50;47.81;100263.34;1737111;81;21747;-67
2022/06/20 01:52:38;;;;;;;5.17;1.70;;;;;;;21.47;47.79;100264.01;1743488;82;21076;-68
2022/06/20 01:55:12;;;;;;;3.00;1.70;;;;;;;21.43;47.82;100260.39;1698445;81;21019;-67
2022/06/20 01:57:42;;;;;;;4.10;1.73;;;;;;;21.42;47.92;100262.06;1737051;81;21574;-68
2022/06/20 02:00:17;;;;;;;3.60;1.60;;;;;;;21.41;47.93;100253.13;1735748;81;21178;-68
2022/06/20 02:02:55;;;;;;;3.83;1.57;;;;;;;21.39;47.85;100258.13;1730782;81;21585;-68
2022/06/20 02:05:25;;;;;;;4.07;1.70;;;;;;;21.35;47.93;100265.34;1734827;80;21133;-68
2022/06/20 02:07:53;;;;;;;2.67;1.50;;;;;;;21.33;47.92;100258.08;1736704;81;21051;-68
2022/06/20 02:10:24;;;;;;;3.87;1.50;;;;;;;21.36;47.93;100260.72;1745414;80;21059;-67
2022/06/20 02:12:51;;;;;;;3.00;1.70;;;;;;;21.37;47.90;100252.79;1738071;81;21059;-67
2022/06/20 02:15:19;;;;;;;3.33;1.80;;;;;;;21.39;47.81;100252.69;1748280;82;21035;-67
2022/06/20 02:17:50;;;;;;;3.23;1.33;;;;;;;21.40;47.76;100260.27;1740034;81;21086;-67
2022/06/20 02:20:24;;;;;;;2.30;1.37;;;;;;;21.39;47.77;100255.41;1744096;80;21074;-66
2022/06/20 02:22:52;;;;;;;1.90;1.40;;;;;;;21.42;47.74;100255.27;1737080;81;21078;-67
2022/06/20 02:25:21;;;;;;;5.03;1.50;;;;;;;21.42;47.72;100258.81;1736572;81;21098;-67
2022/06/20 02:27:54;;;;;;;3.07;1.63;;;;;;;21.41;47.68;100257.20;1737172;81;21082;-67
2022/06/20 02:30:22;;;;;;;5.63;1.80;;;;;;;21.40;47.72;100258.34;1737388;81;21255;-67
2022/06/20 02:33:04;;;;;;;3.53;1.50;;;;;;;21.42;47.68;100260.70;1737226;81;21056;-67
2022/06/20 02:35:31;;;;;;;3.08;1.30;;;;;;;21.43;47.74;100262.31;1735091;81;21188;-67
2022/06/20 02:37:58;;;;;;;3.60;1.77;;;;;;;21.44;47.58;100263.33;1737664;82;21058;-67
2022/06/20 02:40:28;;;;;;;4.83;1.63;;;;;;;21.43;47.53;100267.18;1736387;81;21122;-66
2022/06/20 02:43:12;;;;;;;3.30;1.77;;;;;;;21.43;47.48;100269.11;1744899;80;21852;-68
2022/06/20 02:45:39;;;;;;;4.77;1.73;;;;;;;21.44;47.46;100272.05;1732575;81;21079;-67
2022/06/20 02:48:07;;;;;;;3.37;1.57;;;;;;;21.44;47.41;100274.19;1737330;81;21755;-67
2022/06/20 02:50:40;;;;;;;4.30;1.70;;;;;;;21.46;47.50;100280.66;1736367;81;21598;-67
2022/06/20 02:53:17;;;;;;;3.75;1.90;;;;;;;21.48;47.53;100282.46;1747129;80;21121;-67
2022/06/20 02:55:43;;;;;;;7.17;1.93;;;;;;;21.36;47.93;100283.81;1700235;81;21057;-67
2022/06/20 02:58:19;;;;;;;4.20;1.77;;;;;;;21.05;48.82;100287.74;1736164;81;21110;-67
2022/06/20 03:00:56;;;;;;;2.50;1.60;;;;;;;21.00;48.92;100285.25;1733684;81;22283;-67
2022/06/20 03:03:35;;;;;;;7.77;1.80;;;;;;;20.98;49.01;100284.78;1733073;81;21020;-67
2022/06/20 03:06:04;;;;;;;3.00;1.77;;;;;;;20.99;49.01;100286.36;1703778;81;21078;-67
2022/06/20 03:08:32;;;;;;;3.13;1.90;;;;;;;20.98;49.02;100297.00;1741680;82;21120;-68
2022/06/20 03:11:04;;;;;;;3.73;1.50;;;;;;;21.01;49.07;100284.11;1736527;81;21102;-67
2022/06/20 03:13:30;;;;;;;3.37;1.57;;;;;;;21.03;49.20;100300.31;1735524;81;21582;-67
2022/06/20 03:15:56;;;;;;;4.37;1.53;;;;;;;21.06;49.36;100292.06;1727058;82;21086;-67
2022/06/20 03:18:22;;;;;;;2.47;1.70;;;;;;;21.10;49.54;100296.27;1733135;81;21522;-67
2022/06/20 03:20:49;;;;;;;6.07;2.13;;;;;;;21.12;49.45;100290.70;1745936;82;21487;-67
2022/06/20 03:23:27;;;;;;;4.40;2.00;;;;;;;21.17;49.51;100298.66;1739075;81;21016;-67
2022/06/20 03:25:55;;;;;;;4.83;1.97;;;;;;;21.24;49.51;100302.98;1734604;81;21110;-67
2022/06/20 03:28:23;;;;;;;3.70;1.93;;;;;;;21.30;49.38;100300.85;1698614;81;21011;-67
2022/06/20 03:30:51;;;;;;;4.63;1.80;;;;;;;21.33;49.44;100306.19;1737276;81;21150;-67
2022/06/20 03:33:17;;;;;;;3.63;1.80;;;;;;;21.37;49.61;100313.92;1743224;82;21347;-67
2022/06/20 03:35:55;;;;;;;2.80;1.77;;;;;;;21.40;49.12;100317.33;1706089;82;21087;-67
2022/06/20 03:38:22;;;;;;;3.97;1.73;;;;;;;21.45;49.02;100316.53;1750074;80;20972;-66
2022/06/20 03:40:49;;;;;;;4.93;1.80;;;;;;;21.53;49.56;100313.51;1746073;80;21086;-66
2022/06/20 03:43:20;;;;;;;3.63;1.80;;;;;;;21.61;49.34;100309.09;1733743;81;21018;-67
2022/06/20 03:45:58;;;;;;;3.00;1.80;;;;;;;21.67;49.36;100309.90;1738418;81;21768;-67
2022/06/20 03:48:36;;;;;;;5.27;1.70;;;;;;;21.73;49.00;100309.91;1737849;82;21616;-67
2022/06/20 03:51:20;;;;;;;3.07;1.70;;;;;;;21.82;48.52;100317.98;1736771;81;21122;-67
2022/06/20 03:53:55;;;;;;;4.50;1.90;;;;;;;21.86;48.19;100318.09;1745660;81;21113;-66
2022/06/20 03:56:34;;;;;;;4.50;1.73;;;;;;;21.88;47.95;100319.89;1734928;81;21158;-68
2022/06/20 03:59:14;;;;;;;4.70;1.90;;;;;;;21.90;47.89;100318.42;1735293;81;21312;-68
2022/06/20 04:01:52;;;;;;;5.17;1.93;;;;;;;21.97;47.63;100317.29;1736778;81;21553;-67
2022/06/20 04:04:34;;;;;;;4.53;1.87;;;;;;;22.04;47.95;100315.94;1736018;81;21000;-67
2022/06/20 04:07:11;;;;;;;3.65;1.80;;;;;;;22.14;48.34;100314.91;1737803;81;21008;-67
2022/06/20 04:12:58;;;;;;;4.57;2.00;;;;;;;22.32;48.13;100298.39;1737556;81;21150;-67
2022/06/20 04:15:31;;;;;;;5.57;2.00;;;;;;;22.41;48.16;100288.97;1745121;82;21466;-67
2022/06/20 04:18:28;;;;;;;3.67;1.73;;;;;;;22.54;48.15;100288.37;1736367;81;21020;-67
2022/06/20 04:21:09;;;;;;;4.40;1.60;;;;;;;22.62;48.02;100273.83;1736827;81;21247;-67
2022/06/20 04:23:50;;;;;;;3.05;1.60;;;;;;;22.70;47.67;100266.10;1747240;82;21462;-67
2022/06/20 04:26:25;;;;;;;3.80;1.90;;;;;;;22.80;47.67;100265.36;1740724;81;21047;-67
2022/06/20 04:29:19;;;;;;;3.03;1.70;;;;;;;22.89;47.42;100259.20;1748505;80;21117;-67
2022/06/20 04:32:00;;;;;;;6.33;1.97;;;;;;;22.95;46.94;100260.58;1732933;81;21071;-67
2022/06/20 04:34:32;;;;;;;2.63;1.40;;;;;;;23.02;47.06;100249.87;1738093;81;21077;-67
2022/06/20 04:37:23;;;;;;;2.57;1.70;;;;;;;23.07;47.24;100237.37;1738624;81;21390;-67
2022/06/20 04:39:55;;;;;;;4.00;1.47;;;;;;;23.16;46.25;100224.38;1744647;80;27149;-68
2022/06/20 04:42:36;;;;;;;4.13;1.60;;;;;;;23.27;46.14;100223.28;1737481;81;21004;-67
2022/06/20 04:45:20;;;;;;;2.90;1.70;;;;;;;23.36;45.89;100223.91;1742462;80;21094;-66
2022/06/20 04:47:56;;;;;;;2.97;1.77;;;;;;;23.48;45.54;100223.59;1737364;81;21058;-66
2022/06/20 04:50:25;;;;;;;4.40;1.80;;;;;;;23.59;45.02;100214.55;1743522;80;21486;-67
2022/06/20 04:52:54;;;;;;;3.83;1.77;;;;;;;23.69;44.57;100213.80;1745791;82;21246;-67
2022/06/20 04:55:23;;;;;;;3.27;1.50;;;;;;;23.68;44.35;100208.92;1737851;81;21495;-66
2022/06/20 04:57:55;;;;;;;3.63;1.87;;;;;;;23.72;44.00;100209.00;1739987;80;21108;-67
2022/06/20 05:00:29;;;;;;;3.10;1.57;;;;;;;23.79;43.98;100207.80;1734025;80;21041;-67
2022/06/20 05:02:55;;;;;;;3.17;1.90;;;;;;;23.88;43.66;100202.94;1738611;81;21087;-67
2022/06/20 05:05:25;;;;;;;2.87;1.57;;;;;;;23.99;43.79;100203.99;1737219;81;21243;-67
2022/06/20 05:07:51;;;;;;;3.17;1.70;;;;;;;24.08;43.07;100196.37;1737175;81;21012;-67
2022/06/20 05:10:25;;;;;;;2.53;1.87;;;;;;;24.16;42.39;100193.83;1737921;81;21054;-68
2022/06/20 05:13:12;;;;;;;2.77;1.63;;;;;;;24.22;42.42;100200.55;1734299;81;21025;-67
2022/06/20 05:15:47;;;;;;;3.47;1.90;;;;;;;24.31;42.08;100190.22;1745162;82;21030;-68
2022/06/20 05:18:39;;;;;;;3.23;1.73;;;;;;;24.39;42.13;100187.88;1735170;81;21236;-66
2022/06/20 05:21:14;;;;;;;3.80;1.90;;;;;;;24.50;42.08;100195.72;1736007;81;20936;-67
2022/06/20 05:23:46;;;;;;;2.40;1.43;;;;;;;24.61;42.06;100189.67;1736120;81;21138;-67
2022/06/20 05:26:19;;;;;;;3.03;1.63;;;;;;;24.67;42.03;100190.39;1738790;81;21008;-68
2022/06/20 05:28:46;;;;;;;4.60;1.70;;;;;;;24.77;41.98;100202.09;1740971;81;21137;-67
2022/06/20 05:31:34;;;;;;;2.93;1.60;;;;;;;24.87;40.83;100199.34;1728871;81;21541;-67
2022/06/20 05:34:22;;;;;;;3.53;1.50;;;;;;;24.94;40.96;100198.12;1749317;80;21046;-66
2022/06/20 05:37:15;;;;;;;2.63;1.40;;;;;;;25.03;39.55;100197.88;1740534;81;21004;-67
2022/06/20 05:39:55;;;;;;;2.87;1.67;;;;;;;25.29;39.44;100202.66;1740576;81;21015;-67
2022/06/20 05:42:21;;;;;;;3.03;1.37;;;;;;;25.17;38.49;100210.47;1751222;80;21007;-67
2022/06/20 05:44:49;;;;;;;2.33;1.50;;;;;;;25.16;39.19;100208.88;1738757;81;21199;-67
2022/06/20 05:47:23;;;;;;;2.27;1.60;;;;;;;25.18;39.21;100201.70;1738653;81;21011;-67
2022/06/20 05:50:28;;;;;;;3.37;1.60;;;;;;;25.21;39.10;100192.19;1741248;81;21466;-68
2022/06/20 05:52:55;;;;;;;3.13;1.37;;;;;;;25.29;38.75;100197.77;1738428;81;20964;-67
2022/06/20 05:55:26;;;;;;;2.30;1.40;;;;;;;25.43;38.46;100197.41;1735599;81;21113;-69
2022/06/20 05:57:52;;;;;;;2.10;1.33;;;;;;;25.58;38.37;100199.02;1734114;81;21070;-67
2022/06/20 06:00:24;;;;;;;4.13;1.73;;;;;;;25.70;38.55;100191.98;1739048;81;21220;-67
2022/06/20 06:03:07;;;;;;;3.23;1.50;;;;;;;25.81;38.28;100186.11;1735318;80;21004;-67
2022/06/20 06:05:45;;;;;;;3.90;1.70;;;;;;;25.96;38.28;100186.53;1712019;81;21537;-68
2022/06/20 06:08:34;;;;;;;2.10;1.50;;;;;;;26.07;38.43;100181.77;1733473;81;21134;-67
2022/06/20 06:11:23;;;;;;;4.05;1.50;;;;;;;26.19;37.74;100173.31;1736657;81;22188;-68
2022/06/20 06:14:14;;;;;;;2.23;1.40;;;;;;;26.33;37.54;100168.03;1698033;81;21035;-68
2022/06/20 06:17:19;;;;;;;;;;;;;;;26.40;36.65;100163.21;1739620;81;21078;-68
2022/06/20 06:19:54;;;;;;;2.60;1.40;;;;;;;26.46;36.77;100165.05;1737970;81;20169;-68
2022/06/20 06:22:35;;;;;;;2.03;1.40;;;;;;;26.53;36.10;100158.30;1738868;81;21067;-67
2022/06/20 06:25:32;;;;;;;3.03;1.30;;;;;;;26.54;34.97;100143.44;1737362;81;21553;-66
2022/06/20 06:28:06;;;;;;;3.50;1.23;;;;;;;26.53;35.77;100130.91;1735428;81;21070;-68
2022/06/20 06:30:55;;;;;;;2.77;1.30;;;;;;;26.61;35.53;100127.86;1745212;80;21050;-67
2022/06/20 06:33:39;;;;;;;3.13;1.30;;;;;;;26.70;35.05;100117.97;1737262;81;21039;-67
2022/06/20 06:36:19;;;;;;;3.13;1.40;;;;;;;26.81;34.43;100105.73;1720136;81;21059;-67
2022/06/20 06:39:25;;;;;;;3.43;1.40;;;;;;;26.87;33.97;100102.27;1728661;81;21300;-68
2022/06/20 06:41:56;;;;;;;3.03;1.30;;;;;;;26.94;34.17;100095.28;1734583;81;21023;-67
2022/06/20 06:44:36;;;;;;;4.47;1.40;;;;;;;27.06;33.54;100096.36;1736442;81;20976;-68
2022/06/20 06:47:04;;;;;;;3.07;1.20;;;;;;;27.17;34.17;100083.53;1726238;81;21055;-67
2022/06/20 06:49:43;;;;;;;6.43;1.40;;;;;;;27.29;33.41;100080.50;1736495;81;21082;-68
2022/06/20 06:52:30;;;;;;;4.33;1.50;;;;;;;27.39;33.10;100069.39;1735118;81;21175;-67
2022/06/20 06:55:32;;;;;;;2.50;1.20;;;;;;;27.47;32.66;100083.34;1744606;80;21046;-68
2022/06/20 06:58:22;;;;;;;1.83;1.10;;;;;;;27.54;32.05;100079.28;1730331;81;21042;-68
2022/06/20 07:00:58;;;;;;;3.63;1.70;;;;;;;27.61;31.74;100070.30;1746954;82;21090;-67
2022/06/20 07:03:30;;;;;;;2.23;1.53;;;;;;;27.69;31.38;100065.62;1737633;81;20960;-68
2022/06/20 07:06:03;;;;;;;2.77;1.70;;;;;;;27.77;31.94;100069.44;1739061;81;21069;-67
2022/06/20 07:08:42;;;;;;;3.53;1.40;;;;;;;27.89;31.29;100066.13;1745958;82;21474;-68
2022/06/20 07:11:22;;;;;;;2.63;1.10;;;;;;;27.98;31.02;100061.86;1725138;81;20961;-67
2022/06/20 07:14:21;;;;;;;1.97;1.10;;;;;;;28.11;30.76;100072.50;1740363;81;21072;-68
2022/06/20 07:16:57;;;;;;;5.73;1.30;;;;;;;28.08;31.14;100066.41;1740572;81;21016;-67
2022/06/20 07:19:24;;;;;;;1.87;1.20;;;;;;;28.61;29.21;100047.89;1709489;81;21615;-66
2022/06/20 07:21:51;;;;;;;3.33;1.20;;;;;;;28.72;29.12;100056.31;1742424;81;20989;-68
2022/06/20 07:24:25;;;;;;;2.13;1.17;;;;;;;28.80;29.13;100061.84;1739268;81;20964;-67
2022/06/20 07:27:32;;;;;;;3.53;1.10;;;;;;;28.86;30.17;100066.55;1725027;81;21123;-67
2022/06/20 07:30:13;;;;;;;4.83;1.30;;;;;;;28.95;28.55;100065.53;1742663;81;21043;-67
2022/06/20 07:32:45;;;;;;;3.43;1.03;;;;;;;28.99;28.67;100065.56;1721989;81;21494;-68
2022/06/20 07:35:25;;;;;;;2.37;1.00;;;;;;;29.05;28.16;100053.58;1709841;82;26297;-67
2022/06/20 07:38:14;;;;;;;3.77;1.30;;;;;;;29.12;28.26;100075.00;1721912;83;21007;-67
2022/06/20 07:40:52;;;;;;;3.07;1.33;;;;;;;29.16;28.60;100059.27;1725641;82;21024;-68
2022/06/20 07:43:23;;;;;;;2.03;1.07;;;;;;;29.33;28.04;100083.02;1751239;82;20972;-67
2022/06/20 07:45:51;;;;;;;2.02;1.20;;;;;;;29.45;28.27;100060.56;1738106;81;22032;-67
2022/06/20 07:48:26;;;;;;;2.17;1.20;;;;;;;29.54;28.52;100070.57;1738498;81;21020;-68
2022/06/20 07:51:14;;;;;;;2.97;1.00;;;;;;;29.59;28.04;100063.30;1744489;82;21074;-67
2022/06/20 07:53:55;;;;;;;2.87;1.20;;;;;;;29.71;28.25;100062.69;1736752;81;21102;-68
2022/06/20 07:56:27;;;;;;;2.70;1.40;;;;;;;29.79;28.06;100061.48;1739209;81;26769;-68
2022/06/20 07:59:02;;;;;;;1.97;1.10;;;;;;;29.87;27.82;100057.50;1742823;82;22100;-68
2022/06/20 08:01:46;;;;;;;2.77;1.20;;;;;;;29.84;27.33;100052.80;1737188;81;21066;-68
2022/06/20 08:04:12;;;;;;;3.27;1.03;;;;;;;29.90;27.27;100053.95;1734062;81;21035;-68
2022/06/20 08:06:51;;;;;;;2.83;1.10;;;;;;;29.91;27.36;100061.02;1711200;82;21035;-68
2022/06/20 08:09:30;;;;;;;2.13;1.40;;;;;;;29.92;27.53;100048.84;1743182;82;21045;-67
2022/06/20 08:12:09;;;;;;;3.43;1.47;;;;;;;29.92;27.60;100052.97;1737308;81;21260;-69
2022/06/20 08:14:56;;;;;;;5.90;2.00;;;;;;;29.89;28.05;100052.39;1736395;81;20984;-68
2022/06/20 08:17:24;;;;;;;4.40;1.83;;;;;;;29.94;27.93;100045.67;1746265;82;21098;-69
2022/06/20 08:19:52;;;;;;;6.50;2.90;;;;;;;30.06;27.94;100049.34;1737686;81;21092;-67
2022/06/20 08:22:29;;;;;;;5.80;2.10;;;;;;;30.07;27.88;100050.31;1737703;81;21067;-71
2022/06/20 08:25:13;;;;;;;4.30;2.07;;;;;;;30.10;27.78;100045.38;1737822;81;21311;-69
2022/06/20 08:27:50;;;;;;;5.40;2.47;;;;;;;30.12;28.59;100048.53;1744633;82;21047;-68
2022/06/20 08:30:50;;;;;;;5.87;2.30;;;;;;;30.19;28.42;100033.95;1737288;81;21146;-69
2022/06/20 08:33:42;;;;;;;3.40;1.50;;;;;;;30.26;28.26;100033.13;1736806;81;21011;-71
2022/06/20 08:36:23;;;;;;;1.83;1.30;;;;;;;30.30;28.13;100025.61;1738386;81;21024;-69
2022/06/20 08:39:06;;;;;;;4.67;1.30;;;;;;;30.34;27.42;100040.17;1744834;82;21735;-68
2022/06/20 08:41:53;;;;;;;1.97;1.20;;;;;;;30.39;27.79;100032.84;1741278;81;21051;-69
2022/06/20 08:44:41;;;;;;;2.57;1.30;;;;;;;30.50;28.06;100036.28;1750307;81;21177;-67
2022/06/20 08:47:32;;;;;;;3.83;1.37;;;;;;;30.58;27.87;100033.67;1741466;81;21054;-70
2022/06/20 08:50:50;;;;;;;4.33;1.40;;;;;;;30.54;26.93;100019.15;1745821;82;21597;-68
2022/06/20 08:53:48;;;;;;;3.00;1.60;;;;;;;30.59;27.63;100024.81;1735009;81;22249;-68
2022/06/20 08:56:51;;;;;;;2.40;1.30;;;;;;;30.69;27.52;100018.42;1743491;82;21210;-69
2022/06/20 08:59:51;;;;;;;3.10;1.17;;;;;;;30.77;26.55;100030.22;1737220;81;21558;-69
2022/06/20 09:02:26;;;;;;;2.80;1.23;;;;;;;30.71;26.37;100018.80;1737762;81;21024;-68
2022/06/20 09:05:08;;;;;;;3.90;1.30;;;;;;;30.70;26.77;100021.95;1745402;82;21102;-67
2022/06/20 09:07:44;;;;;;;2.53;1.07;;;;;;;30.73;26.53;100025.28;1736744;81;22174;-68
2022/06/20 09:10:45;;;;;;;2.20;1.23;;;;;;;30.77;26.34;100019.19;1737497;81;21102;-67
2022/06/20 09:13:43;;;;;;;2.37;1.30;;;;;;;30.84;26.21;100041.17;1734026;81;21023;-68
2022/06/20 09:16:28;;;;;;;5.00;1.20;;;;;;;30.84;25.98;100017.74;1696192;81;21034;-68
2022/06/20 09:19:12;;;;;;;3.27;1.00;;;;;;;30.88;26.32;100003.92;1724280;81;21058;-68
2022/06/20 09:22:08;;;;;;;4.43;1.10;;;;;;;30.92;25.86;100018.45;1736378;81;22212;-67
2022/06/20 09:24:55;;;;;;;1.90;1.13;;;;;;;30.95;26.04;100009.36;1688846;82;21622;-68
2022/06/20 09:27:50;;;;;;;3.27;1.03;;;;;;;31.02;26.10;100012.81;1736614;81;21122;-69
2022/06/20 09:30:20;;;;;;;4.20;1.47;;;;;;;31.08;24.87;100007.05;1736672;81;21137;-68
2022/06/20 09:33:14;;;;;;;2.63;1.20;;;;;;;31.08;26.20;100003.51;1737980;81;21158;-67
2022/06/20 09:36:01;;;;;;;3.90;1.57;;;;;;;31.18;26.07;99981.92;1735518;81;21741;-68
2022/06/20 09:39:10;;;;;;;3.93;1.20;;;;;;;31.32;25.68;99982.34;1738817;81;21012;-68
2022/06/20 09:42:05;;;;;;;2.23;1.10;;;;;;;31.29;25.63;99985.92;1742016;81;21007;-67
2022/06/20 09:45:06;;;;;;;2.27;1.20;;;;;;;31.23;25.77;99987.59;1746941;81;21099;-68
2022/06/20 09:47:48;;;;;;;1.77;1.27;;;;;;;31.22;25.83;99977.13;1735352;81;26644;-69
2022/06/20 09:50:41;;;;;;;1.77;1.10;;;;;;;31.23;25.10;99995.27;1746185;82;21644;-67
2022/06/20 09:53:17;;;;;;;2.27;1.20;;;;;;;31.24;25.10;99991.91;1704637;81;20996;-67
2022/06/20 09:56:10;;;;;;;3.87;1.40;;;;;;;31.38;25.92;99995.13;1737086;81;21008;-67
2022/06/20 09:58:47;;;;;;;2.60;1.20;;;;;;;31.50;25.80;99988.47;1750678;81;21628;-67
2022/06/20 10:01:34;;;;;;;3.00;1.40;;;;;;;31.62;25.11;99980.82;1740799;81;21008;-68
2022/06/20 10:04:21;;;;;;;2.63;1.13;;;;;;;31.67;24.83;99986.67;1733419;81;21566;-68
2022/06/20 10:07:14;;;;;;;3.13;1.00;;;;;;;31.68;25.27;99979.17;1735132;81;21216;-68
2022/06/20 10:09:54;;;;;;;1.97;1.20;;;;;;;31.65;25.04;99986.30;1742879;82;21054;-67
2022/06/20 10:12:48;;;;;;;2.70;1.20;;;;;;;31.82;25.39;99976.23;1694043;82;21063;-68
2022/06/20 10:15:50;;;;;;;2.33;1.10;;;;;;;31.89;25.15;99969.85;1734077;81;20984;-68
2022/06/20 10:18:34;;;;;;;3.25;1.22;;;;;;;31.61;25.15;99966.23;1744955;82;21640;-68
2022/06/20 10:21:06;;;;;;;3.73;1.20;;;;;;;31.50;25.49;99964.23;1732431;81;20965;-67
2022/06/20 10:23:47;;;;;;;3.13;1.23;;;;;;;31.90;25.50;99961.14;1737541;81;21000;-67
2022/06/20 10:26:43;;;;;;;2.47;1.20;;;;;;;32.01;25.27;99954.06;1747405;82;28225;-67
2022/06/20 10:29:28;;;;;;;4.27;1.27;;;;;;;32.11;25.06;99949.58;1737449;81;22269;-67
2022/06/20 10:32:16;;;;;;;1.40;1.00;;;;;;;31.59;26.37;99947.14;1745413;82;21102;-68
2022/06/20 10:35:00;;;;;;;3.60;1.40;;;;;;;31.52;25.37;99943.88;1740923;81;21589;-68
2022/06/20 10:37:42;;;;;;;3.67;1.00;;;;;;;31.69;25.70;99942.88;1740393;81;21086;-68
2022/06/20 10:40:34;;;;;;;2.90;1.50;;;;;;;31.66;25.55;99942.93;1749375;82;21034;-67
2022/06/20 10:43:27;;;;;;;2.23;1.30;;;;;;;31.77;25.80;99949.07;1740525;81;21032;-67
2022/06/20 10:45:59;;;;;;;2.15;0.90;;;;;;;31.90;25.48;99940.42;1739513;81;21649;-67
2022/06/20 10:48:51;;;;;;;4.63;1.50;;;;;;;31.98;25.45;99941.89;1736657;81;20984;-68
2022/06/20 10:51:54;;;;;;;2.17;1.20;;;;;;;31.94;24.82;99938.98;1736496;81;21047;-68
2022/06/20 10:54:54;;;;;;;2.23;1.07;;;;;;;31.74;24.57;99945.75;1735271;81;21042;-69
2022/06/20 10:57:53;;;;;;;2.23;1.00;;;;;;;31.57;24.92;99936.53;1652517;86;21750;-68
2022/06/20 11:00:22;;;;;;;2.97;1.20;;;;;;;31.60;24.98;99930.78;1650749;86;21659;-68
2022/06/20 11:03:19;;;;;;;2.72;1.32;;;;;;;31.70;25.85;99920.19;1705342;81;21546;-67
2022/06/20 11:06:12;;;;;;;4.37;1.10;;;;;;;31.83;25.61;99929.45;1738500;82;21047;-68
2022/06/20 11:09:17;;;;;;;2.30;1.00;;;;;;;31.95;24.82;99919.83;1740925;82;21329;-67
2022/06/20 11:12:07;;;;;;;1.60;1.10;;;;;;;32.03;25.42;99922.67;1771123;80;21587;-67
2022/06/20 11:15:21;;;;;;;3.20;1.07;;;;;;;32.07;25.03;99924.77;1772573;80;21052;-68
2022/06/20 11:18:25;;;;;;;2.43;1.13;;;;;;;32.06;24.79;99908.63;1730748;81;20948;-67
2022/06/20 11:21:11;;;;;;;3.22;1.27;;;;;;;32.19;25.27;99902.69;1740565;81;21084;-66
2022/06/20 11:24:14;;;;;;;2.62;0.93;;;;;;;32.24;24.57;99890.53;1750357;81;21043;-67
2022/06/20 11:27:01;;;;;;;2.62;1.27;;;;;;;32.22;25.15;99886.65;1742381;81;21012;-67
2022/06/20 11:30:09;;;;;;;2.90;1.30;;;;;;;32.24;25.36;99888.38;1740999;81;21592;-67
2022/06/20 11:33:15;;;;;;;2.08;1.12;;;;;;;32.36;25.27;99882.85;1742039;81;21055;-67
2022/06/20 11:35:55;;;;;;;1.62;1.00;;;;;;;32.45;25.44;99890.03;1739795;81;21040;-68
2022/06/20 11:39:06;;;;;;;4.83;1.25;;;;;;;32.61;25.06;99889.31;1741948;81;21087;-68
2022/06/20 11:41:39;;;;;;;4.22;1.27;;;;;;;32.65;24.94;99892.81;1713844;81;21105;-69
2022/06/20 11:44:19;;;;;;;3.05;1.00;;;;;;;32.69;24.57;99885.23;1750722;82;21582;-68
2022/06/20 11:47:13;;;;;;;1.72;1.00;;;;;;;32.71;24.49;99882.83;1741423;81;21008;-68
2022/06/20 11:50:16;;;;;;;3.35;0.90;;;;;;;32.74;24.56;99879.19;1749566;80;21043;-66
2022/06/20 11:53:12;;;;;;;2.62;1.12;;;;;;;32.78;24.18;99886.06;1743845;80;21040;-68
2022/06/20 11:56:04;;;;;;;3.27;1.10;;;;;;;32.76;23.74;99878.17;1737772;81;21680;-67
2022/06/20 11:58:52;;;;;;;3.77;1.20;;;;;;;32.75;24.23;99864.78;1736397;81;21184;-68
2022/06/20 12:01:25;;;;;;;3.52;1.20;;;;;;;32.81;24.64;99861.09;1744309;81;21074;-68
2022/06/20 12:04:12;;;;;;;3.12;1.10;;;;;;;32.95;24.25;99855.87;1737869;81;21067;-66
2022/06/20 12:06:55;;;;;;;2.30;1.17;;;;;;;33.07;24.26;99855.25;1737451;81;21025;-68
2022/06/20 12:09:44;;;;;;;2.75;1.20;;;;;;;33.11;24.07;99855.17;1745253;82;21090;-69
2022/06/20 12:12:26;;;;;;;2.05;1.12;;;;;;;33.10;24.43;99846.09;1738349;81;21735;-68
2022/06/20 12:15:18;;;;;;;2.10;1.07;;;;;;;33.14;23.66;99837.11;1736941;81;21091;-67
2022/06/20 12:18:10;;;;;;;2.27;1.10;;;;;;;33.14;23.61;99834.95;1737881;81;21090;-68
2022/06/20 12:23:34;;;;;;;2.00;1.20;;;;;;;33.11;22.77;99833.04;1737883;81;21031;-68
2022/06/20 12:26:16;;;;;;;1.57;1.00;;;;;;;33.06;23.12;99828.00;1731042;81;21121;-67
2022/06/20 12:28:50;;;;;;;3.25;1.10;;;;;;;33.08;23.67;99821.45;1730245;80;21035;-68
2022/06/20 12:31:22;;;;;;;3.20;1.15;;;;;;;33.15;23.61;99814.37;1739629;80;21559;-68